Time;durP1;ratioP1;P1;durP2;ratioP2;P2;SDS_P1;SDS_P2;PMS_P1;PMS_P2;Temp;Humidity;BMP_temperature;BMP_pressure;BME280_temperature;BME280_humidity;BME280_pressure;Samples;Min_cycle;Max_cycle;Signal;HPM_P1;HPM_P2
2022/07/16 00:03:11;;;;;;;2.25;2.05;;;;;;;16.33;54.15;99094.06;4124787;28;20256;-54
2022/07/16 00:05:12;;;;;;;3.30;2.08;;;;;;;16.36;54.22;99088.81;4111824;28;20234;-56
2022/07/16 00:07:14;;;;;;;6.35;1.88;;;;;;;16.37;54.24;99093.22;4104873;28;20302;-56
2022/07/16 00:09:16;;;;;;;2.35;2.15;;;;;;;16.33;54.44;99083.84;4108401;28;21268;-54
2022/07/16 00:11:18;;;;;;;2.05;1.95;;;;;;;16.26;54.25;99083.28;4107207;28;20234;-54
2022/07/16 00:13:20;;;;;;;3.30;1.90;;;;;;;16.24;54.60;99090.97;4106467;28;20219;-55
2022/07/16 00:15:21;;;;;;;2.78;2.58;;;;;;;16.19;54.42;99088.22;4112026;28;20202;-56
2022/07/16 00:17:24;;;;;;;1.67;1.58;;;;;;;16.18;54.41;99092.09;4113086;28;20214;-55
2022/07/16 00:19:25;;;;;;;2.00;1.77;;;;;;;16.15;54.67;99089.88;4112476;28;20231;-55
2022/07/16 00:21:27;;;;;;;4.88;1.80;;;;;;;16.05;54.62;99098.13;4105366;28;20282;-56
2022/07/16 00:23:29;;;;;;;4.00;1.52;;;;;;;15.99;54.50;99099.22;4110589;28;20218;-56
2022/07/16 00:25:30;;;;;;;6.00;2.17;;;;;;;15.97;54.45;99100.59;4121543;28;20300;-56
2022/07/16 00:27:32;;;;;;;1.98;1.88;;;;;;;15.94;54.45;99090.91;4105421;28;20263;-55
2022/07/16 00:29:34;;;;;;;3.83;1.92;;;;;;;15.90;54.36;99089.78;4102820;28;20234;-56
2022/07/16 00:31:36;;;;;;;2.92;2.63;;;;;;;15.93;54.35;99097.53;4096983;28;20219;-56
2022/07/16 00:33:38;;;;;;;2.28;2.00;;;;;;;15.88;54.47;99094.75;4112638;28;20210;-55
2022/07/16 00:35:40;;;;;;;3.33;1.77;;;;;;;15.81;54.45;99105.19;4101186;28;20765;-58
2022/07/16 00:37:41;;;;;;;1.80;1.70;;;;;;;15.76;54.37;99096.88;4104096;28;20246;-55
2022/07/16 00:39:43;;;;;;;2.42;1.73;;;;;;;15.74;54.44;99096.34;4103271;28;20235;-56
2022/07/16 00:41:47;;;;;;;2.80;2.13;;;;;;;15.72;54.74;99098.56;4104430;28;20301;-56
2022/07/16 00:43:52;;;;;;;3.17;2.88;;;;;;;15.69;54.90;99098.25;4112306;28;20221;-55
2022/07/16 00:45:54;;;;;;;2.55;2.28;;;;;;;15.64;55.34;99096.28;4105897;28;20306;-56
2022/07/16 00:47:55;;;;;;;2.35;1.50;;;;;;;15.62;55.55;99092.97;4105294;28;20271;-55
2022/07/16 00:49:57;;;;;;;4.35;2.92;;;;;;;15.62;55.50;99097.66;4110796;28;21077;-56
2022/07/16 00:51:59;;;;;;;3.05;2.35;;;;;;;15.61;55.67;99099.59;4121084;28;20234;-56
2022/07/16 00:54:02;;;;;;;2.80;2.60;;;;;;;15.58;56.10;99097.38;4112429;28;20687;-55
2022/07/16 00:56:08;;;;;;;3.10;2.58;;;;;;;15.53;56.14;99097.34;4106387;28;20257;-55
2022/07/16 00:58:10;;;;;;;3.13;2.53;;;;;;;15.46;56.48;99099.50;4113005;28;20242;-56
2022/07/16 01:00:12;;;;;;;4.30;2.67;;;;;;;15.38;56.24;99097.25;4110680;28;20304;-56
2022/07/16 01:02:14;;;;;;;2.60;2.35;;;;;;;15.29;56.20;99096.06;4108738;28;20207;-54
2022/07/16 01:04:16;;;;;;;4.05;2.05;;;;;;;15.16;56.29;99093.75;4102126;28;20550;-55
2022/07/16 01:06:18;;;;;;;2.55;2.38;;;;;;;15.13;56.13;99094.31;4096085;29;20722;-55
2022/07/16 01:08:21;;;;;;;3.50;2.40;;;;;;;15.07;56.32;99095.34;4120776;28;20313;-54
2022/07/16 01:10:23;;;;;;;2.78;2.42;;;;;;;15.04;56.39;99098.63;4093206;28;20240;-55
2022/07/16 01:12:30;;;;;;;5.00;2.97;;;;;;;15.07;56.37;99095.34;4107797;28;20205;-56
2022/07/16 01:14:32;;;;;;;2.65;1.95;;;;;;;15.08;56.25;99090.66;4095653;28;20754;-56
2022/07/16 01:16:34;;;;;;;2.13;2.00;;;;;;;15.07;56.16;99089.00;4096686;28;20635;-55
2022/07/16 01:18:37;;;;;;;3.63;2.30;;;;;;;15.09;56.03;99087.66;4111308;28;20203;-55
2022/07/16 01:20:39;;;;;;;2.75;2.22;;;;;;;15.15;55.82;99094.84;4119237;28;20230;-56
2022/07/16 01:22:41;;;;;;;3.70;2.38;;;;;;;15.21;55.81;99090.19;4109208;28;20210;-55
2022/07/16 01:24:42;;;;;;;2.35;2.15;;;;;;;15.18;56.13;99080.56;4095392;28;20279;-54
2022/07/16 01:26:44;;;;;;;3.55;2.75;;;;;;;15.20;56.11;99089.38;4106554;28;20560;-55
2022/07/16 01:28:46;;;;;;;2.78;2.58;;;;;;;15.19;56.44;99087.72;4106139;28;20207;-55
2022/07/16 01:30:48;;;;;;;3.22;2.28;;;;;;;15.15;56.64;99086.59;4103926;28;20227;-55
2022/07/16 01:32:50;;;;;;;2.45;2.25;;;;;;;15.14;56.64;99086.84;4105305;28;20214;-55
2022/07/16 01:34:52;;;;;;;2.35;2.15;;;;;;;15.11;56.73;99090.16;4105975;28;20270;-54
2022/07/16 01:36:59;;;;;;;3.15;2.60;;;;;;;15.12;56.66;99091.81;4104182;28;20522;-56
2022/07/16 01:39:01;;;;;;;3.70;2.55;;;;;;;15.07;56.80;99092.59;4110005;28;20205;-55
2022/07/16 01:41:02;;;;;;;2.83;2.58;;;;;;;15.04;56.97;99093.09;4119056;28;20199;-54
2022/07/16 01:43:12;;;;;;;2.90;2.40;;;;;;;15.00;57.04;99094.75;4103916;28;20218;-55
2022/07/16 01:45:14;;;;;;;3.85;3.50;;;;;;;14.89;57.47;99093.00;4103756;28;20246;-56
2022/07/16 01:47:16;;;;;;;7.38;2.35;;;;;;;14.82;57.66;99097.91;4112138;28;20333;-55
2022/07/16 01:49:18;;;;;;;3.45;2.35;;;;;;;14.76;57.86;99089.88;4111837;28;20289;-56
2022/07/16 01:51:19;;;;;;;5.03;3.00;;;;;;;14.76;58.04;99090.69;4103819;28;20281;-54
2022/07/16 01:53:22;;;;;;;2.97;2.78;;;;;;;14.73;58.05;99085.72;4111884;28;20214;-55
2022/07/16 01:55:24;;;;;;;3.40;2.72;;;;;;;14.73;57.96;99080.22;4110377;28;20682;-54
2022/07/16 01:57:25;;;;;;;6.53;2.72;;;;;;;14.74;58.04;99079.13;4121033;28;20260;-56
2022/07/16 01:59:27;;;;;;;2.78;2.58;;;;;;;14.72;58.12;99075.81;4120405;28;20745;-55
2022/07/16 02:01:29;;;;;;;3.03;2.83;;;;;;;14.73;58.08;99082.13;4108459;28;20203;-56
2022/07/16 02:03:31;;;;;;;2.65;2.45;;;;;;;14.73;58.19;99082.13;4111903;28;20217;-55
2022/07/16 02:05:33;;;;;;;2.95;2.65;;;;;;;14.71;58.05;99074.09;4105175;28;20210;-54
2022/07/16 02:07:35;;;;;;;4.07;2.80;;;;;;;14.69;58.12;99087.31;4104481;28;20210;-55
2022/07/16 02:09:37;;;;;;;3.28;2.40;;;;;;;14.68;58.07;99074.66;4112700;28;20277;-56
2022/07/16 02:11:38;;;;;;;2.47;2.20;;;;;;;14.67;58.38;99077.66;4110596;28;20234;-55
2022/07/16 02:13:42;;;;;;;4.00;2.65;;;;;;;14.66;58.12;99076.00;4111865;28;20215;-54
2022/07/16 02:15:44;;;;;;;4.05;2.85;;;;;;;14.61;58.43;99073.19;4105684;28;20630;-54
2022/07/16 02:17:45;;;;;;;2.75;2.55;;;;;;;14.51;58.47;99079.44;4120755;28;20210;-54
2022/07/16 02:19:47;;;;;;;5.57;3.22;;;;;;;14.41;58.73;99082.13;4120173;28;20597;-55
2022/07/16 02:21:49;;;;;;;3.25;2.97;;;;;;;14.33;59.25;99085.34;4106298;28;20640;-55
2022/07/16 02:23:51;;;;;;;6.35;2.92;;;;;;;14.24;59.06;99081.38;4109100;28;20210;-54
2022/07/16 02:25:53;;;;;;;3.58;2.85;;;;;;;14.18;59.40;99085.16;4103956;28;20214;-55
2022/07/16 02:28:06;;;;;;;2.72;2.53;;;;;;;14.19;59.08;99086.84;4102718;28;20266;-55
2022/07/16 02:30:09;;;;;;;3.28;3.08;;;;;;;14.23;59.09;99084.41;4121127;28;20230;-56
2022/07/16 02:32:11;;;;;;;3.60;3.35;;;;;;;14.26;58.82;99086.63;4112563;28;20227;-54
2022/07/16 02:34:13;;;;;;;3.70;2.70;;;;;;;14.28;58.58;99089.94;4107592;28;20261;-55
2022/07/16 02:36:14;;;;;;;4.95;3.78;;;;;;;14.30;58.71;99091.34;4108407;28;20745;-56
2022/07/16 02:38:17;;;;;;;3.38;3.08;;;;;;;14.28;58.89;99088.03;4111727;28;20289;-56
2022/07/16 02:40:18;;;;;;;2.97;2.78;;;;;;;14.26;58.82;99087.47;4090889;28;20285;-55
2022/07/16 02:42:20;;;;;;;4.20;3.38;;;;;;;14.24;58.74;99086.88;4116941;28;20210;-56
2022/07/16 02:44:22;;;;;;;10.90;2.80;;;;;;;14.24;59.10;99086.88;4083765;29;20243;-56
2022/07/16 02:46:23;;;;;;;2.70;2.50;;;;;;;14.20;58.95;99085.75;4100773;28;20212;-55
2022/07/16 02:48:25;;;;;;;3.75;2.97;;;;;;;14.21;59.24;99084.66;4103668;28;20212;-56
2022/07/16 02:50:28;;;;;;;3.15;2.80;;;;;;;14.22;59.15;99086.31;4120468;28;20242;-55
2022/07/16 02:52:29;;;;;;;3.15;2.90;;;;;;;14.21;59.11;99095.69;4091061;29;20239;-54
2022/07/16 02:54:31;;;;;;;3.17;2.78;;;;;;;14.20;59.52;99088.50;4100571;28;20215;-55
2022/07/16 02:56:33;;;;;;;5.93;3.30;;;;;;;14.17;59.20;99086.22;4107024;28;20207;-55
2022/07/16 02:58:35;;;;;;;4.00;2.63;;;;;;;14.11;59.78;99079.00;4110417;28;20211;-57
2022/07/16 03:00:37;;;;;;;2.92;2.63;;;;;;;14.08;59.73;99087.78;4103540;28;20608;-56
2022/07/16 03:02:39;;;;;;;3.80;3.00;;;;;;;14.05;60.03;99092.97;4103923;28;20199;-55
2022/07/16 03:04:41;;;;;;;3.42;3.13;;;;;;;13.96;60.14;99087.09;4120469;28;20590;-57
2022/07/16 03:06:42;;;;;;;3.13;2.90;;;;;;;13.85;60.32;99090.00;4120128;28;20210;-57
2022/07/16 03:08:46;;;;;;;3.45;3.25;;;;;;;13.75;60.58;99087.09;4101921;28;21108;-55
2022/07/16 03:10:47;;;;;;;3.25;2.95;;;;;;;13.65;61.11;99096.09;4088864;28;20227;-56
2022/07/16 03:12:49;;;;;;;3.30;3.00;;;;;;;13.54;61.19;99091.53;4102346;28;20223;-56
2022/07/16 03:14:51;;;;;;;2.58;2.38;;;;;;;13.48;61.18;99099.97;4094333;29;20219;-57
2022/07/16 03:16:53;;;;;;;3.53;3.20;;;;;;;13.36;61.37;99086.31;4104310;28;20238;-56
2022/07/16 03:18:54;;;;;;;3.95;3.72;;;;;;;13.31;61.68;99097.25;4108584;28;20255;-57
2022/07/16 03:20:56;;;;;;;3.85;3.55;;;;;;;13.28;61.67;99092.28;4103221;28;20743;-56
2022/07/16 03:22:58;;;;;;;4.75;4.22;;;;;;;13.20;62.07;99097.38;4102452;28;20215;-57
2022/07/16 03:24:59;;;;;;;4.38;3.92;;;;;;;13.26;61.55;99091.69;4101519;28;20215;-56
2022/07/16 03:27:01;;;;;;;4.95;3.22;;;;;;;13.24;61.46;99096.59;4108057;28;20218;-55
2022/07/16 03:29:04;;;;;;;3.85;3.45;;;;;;;13.24;61.34;99096.59;4117755;28;20202;-57
2022/07/16 03:31:05;;;;;;;3.50;3.17;;;;;;;13.23;61.38;99094.94;4106002;28;20211;-57
2022/07/16 03:33:07;;;;;;;4.30;3.85;;;;;;;13.27;61.28;99104.34;4119905;28;20207;-55
2022/07/16 03:35:10;;;;;;;3.33;3.10;;;;;;;13.25;61.47;99101.00;4102420;28;20204;-56
2022/07/16 03:37:12;;;;;;;3.65;3.40;;;;;;;13.23;61.82;99100.44;4109778;28;20205;-56
2022/07/16 03:39:14;;;;;;;3.88;3.65;;;;;;;13.23;61.56;99092.19;4105613;28;20310;-56
2022/07/16 03:41:15;;;;;;;3.45;3.15;;;;;;;13.25;61.41;99092.75;4107845;28;20755;-55
2022/07/16 03:43:17;;;;;;;3.15;2.95;;;;;;;13.29;61.48;99096.69;4109504;28;20215;-56
2022/07/16 03:45:19;;;;;;;3.88;3.58;;;;;;;13.34;61.29;99105.00;4101951;28;20684;-56
2022/07/16 03:47:21;;;;;;;3.70;3.30;;;;;;;13.37;61.50;99098.97;4106797;28;20250;-55
2022/07/16 03:49:23;;;;;;;3.33;3.08;;;;;;;13.38;61.37;99106.16;4093664;28;20239;-56
2022/07/16 03:51:25;;;;;;;3.78;3.47;;;;;;;13.37;61.39;99101.72;4103499;28;20222;-55
2022/07/16 03:53:26;;;;;;;3.08;2.88;;;;;;;13.37;61.73;99112.72;4094811;28;20208;-55
2022/07/16 03:55:28;;;;;;;3.55;3.35;;;;;;;13.35;61.56;99109.41;4100700;28;20219;-55
2022/07/16 03:57:30;;;;;;;3.70;3.45;;;;;;;13.36;61.58;99111.06;4106884;28;20214;-56
2022/07/16 03:59:31;;;;;;;4.25;3.85;;;;;;;13.33;61.52;99108.84;4102640;28;20235;-56
2022/07/16 04:01:33;;;;;;;4.38;3.97;;;;;;;13.29;61.65;99115.91;4104522;28;20295;-57
2022/07/16 04:03:36;;;;;;;3.78;3.47;;;;;;;13.29;61.97;99113.16;4099602;28;20584;-55
2022/07/16 04:05:38;;;;;;;2.92;2.72;;;;;;;13.30;61.59;99111.28;4105916;28;20912;-56
2022/07/16 04:07:39;;;;;;;7.35;3.42;;;;;;;13.25;62.19;99111.19;4120576;28;20285;-56
2022/07/16 04:09:41;;;;;;;3.45;3.17;;;;;;;13.17;62.68;99112.44;4118529;28;20226;-55
2022/07/16 04:11:43;;;;;;;3.28;3.03;;;;;;;13.10;62.45;99097.22;4102504;28;20595;-55
2022/07/16 04:13:45;;;;;;;3.72;3.42;;;;;;;13.09;62.40;99107.38;4118053;28;20248;-56
2022/07/16 04:15:47;;;;;;;3.78;3.58;;;;;;;13.05;62.88;99106.19;4095126;28;20299;-55
2022/07/16 04:17:48;;;;;;;3.75;3.35;;;;;;;12.99;63.23;99104.50;4100652;28;20269;-55
2022/07/16 04:19:50;;;;;;;3.72;3.40;;;;;;;12.96;63.24;99107.72;4101881;28;20834;-55
2022/07/16 04:21:52;;;;;;;6.80;3.53;;;;;;;12.94;62.86;99109.88;4092582;28;20203;-55
2022/07/16 04:23:53;;;;;;;3.42;3.22;;;;;;;12.97;62.58;99108.56;4102283;28;20215;-57
2022/07/16 04:25:55;;;;;;;3.13;2.72;;;;;;;13.02;62.56;99112.22;4119844;28;20658;-56
2022/07/16 04:27:57;;;;;;;3.88;3.10;;;;;;;13.07;62.84;99109.56;4123072;28;20206;-56
2022/07/16 04:29:59;;;;;;;4.30;3.95;;;;;;;13.08;62.77;99111.22;4112244;28;20571;-57
2022/07/16 04:32:00;;;;;;;3.80;3.50;;;;;;;13.07;62.63;99115.03;4110443;28;20231;-56
2022/07/16 04:34:02;;;;;;;3.45;3.25;;;;;;;13.11;62.69;99109.88;4109867;28;20650;-55
2022/07/16 04:36:04;;;;;;;3.70;3.40;;;;;;;13.14;62.47;99115.69;4104471;28;20257;-56
2022/07/16 04:38:06;;;;;;;3.20;2.90;;;;;;;13.16;62.51;99116.28;4106312;28;20598;-56
2022/07/16 04:40:09;;;;;;;3.80;3.45;;;;;;;13.18;62.20;99114.09;4110490;28;20231;-55
2022/07/16 04:42:11;;;;;;;3.45;3.13;;;;;;;13.19;62.65;99115.78;4106780;28;20200;-55
2022/07/16 04:44:13;;;;;;;3.58;3.30;;;;;;;13.21;62.79;99121.84;4120270;28;20221;-55
2022/07/16 04:46:14;;;;;;;3.95;3.55;;;;;;;13.22;62.61;99118.00;4102582;28;20211;-54
2022/07/16 04:48:16;;;;;;;3.78;3.47;;;;;;;13.28;62.17;99122.50;4104988;28;20277;-55
2022/07/16 04:50:18;;;;;;;3.78;3.47;;;;;;;13.29;62.63;99129.66;4103044;28;20286;-54
2022/07/16 04:52:30;;;;;;;3.83;3.53;;;;;;;13.32;62.55;99126.44;4121988;28;20217;-56
2022/07/16 04:54:32;;;;;;;5.80;3.88;;;;;;;13.35;62.68;99117.66;4110322;28;20289;-55
2022/07/16 04:56:34;;;;;;;3.55;3.35;;;;;;;13.37;62.58;99120.97;4110179;28;20254;-55
2022/07/16 04:58:35;;;;;;;3.70;3.38;;;;;;;13.39;62.62;99117.97;4110272;28;20215;-54
2022/07/16 05:00:37;;;;;;;3.53;3.33;;;;;;;13.42;62.33;99121.06;4104980;28;20235;-55
2022/07/16 05:02:58;;;;;;;4.30;3.58;;;;;;;13.41;62.25;99116.66;4110802;28;20211;-55
2022/07/16 05:05:01;;;;;;;5.15;3.85;;;;;;;13.44;62.47;99121.63;4117935;28;20215;-54
2022/07/16 05:07:03;;;;;;;3.78;3.10;;;;;;;13.47;62.40;99120.28;4123353;28;20211;-55
2022/07/16 05:09:11;;;;;;;4.57;4.28;;;;;;;13.42;62.84;99123.81;4103799;28;20744;-55
2022/07/16 05:11:14;;;;;;;4.35;4.05;;;;;;;13.38;63.15;99122.63;4121201;28;20209;-51
2022/07/16 05:13:19;;;;;;;3.55;3.25;;;;;;;13.28;63.49;99128.00;4097174;28;20246;-52
2022/07/16 05:15:22;;;;;;;4.10;3.70;;;;;;;13.27;63.71;99126.34;4112031;28;20921;-52
2022/07/16 05:17:23;;;;;;;4.05;3.75;;;;;;;13.32;63.28;99129.19;4115147;28;20682;-51
2022/07/16 05:19:28;;;;;;;4.22;3.92;;;;;;;13.46;63.05;99130.47;4114501;28;20289;-52
2022/07/16 05:21:30;;;;;;;4.25;3.97;;;;;;;13.53;63.04;99135.78;4107146;28;20247;-52
2022/07/16 05:23:33;;;;;;;3.78;3.47;;;;;;;13.58;62.95;99133.91;4108964;28;20202;-52
2022/07/16 05:25:35;;;;;;;9.25;3.78;;;;;;;13.69;62.51;99143.97;4097020;28;20207;-51
2022/07/16 05:27:37;;;;;;;4.63;4.18;;;;;;;13.71;63.12;99143.75;4114117;28;20211;-51
2022/07/16 05:29:39;;;;;;;4.18;3.88;;;;;;;13.82;62.60;99146.38;4105357;28;20278;-52
2022/07/16 05:31:41;;;;;;;8.77;3.90;;;;;;;13.91;62.65;99144.81;4112879;28;20203;-51
2022/07/16 05:33:42;;;;;;;4.78;4.38;;;;;;;14.01;62.55;99153.22;4097335;28;20675;-52
2022/07/16 05:35:44;;;;;;;11.85;4.88;;;;;;;14.06;64.46;99147.78;4107929;28;20679;-52
2022/07/16 05:37:46;;;;;;;7.15;4.55;;;;;;;14.20;63.61;99159.25;4104652;28;20258;-51
2022/07/16 05:39:47;;;;;;;4.35;3.72;;;;;;;14.36;63.86;99159.16;4119049;28;21001;-51
2022/07/16 05:41:49;;;;;;;6.32;3.63;;;;;;;14.57;63.94;99158.28;4120800;28;20359;-52
2022/07/16 05:43:51;;;;;;;3.83;3.50;;;;;;;14.76;63.05;99159.56;4111991;28;20740;-52
2022/07/16 05:45:53;;;;;;;4.70;4.30;;;;;;;14.99;62.55;99153.75;4104695;28;20548;-52
2022/07/16 05:47:55;;;;;;;6.32;4.63;;;;;;;15.16;62.04;99159.94;4113778;28;20748;-52
2022/07/16 05:49:56;;;;;;;4.22;3.35;;;;;;;15.34;61.67;99165.06;4111452;28;20333;-52
2022/07/16 05:51:59;;;;;;;6.88;3.90;;;;;;;15.57;60.85;99170.19;4121459;28;20210;-51
2022/07/16 05:54:01;;;;;;;6.68;4.90;;;;;;;15.76;60.48;99171.41;4103159;28;20219;-52
2022/07/16 05:56:03;;;;;;;3.78;3.58;;;;;;;15.86;59.57;99177.00;4109044;28;20249;-51
2022/07/16 05:58:05;;;;;;;4.03;3.58;;;;;;;15.93;59.48;99169.31;4114037;28;20206;-52
2022/07/16 06:00:12;;;;;;;5.18;3.50;;;;;;;16.06;59.39;99174.34;4114090;28;20254;-51
2022/07/16 06:02:14;;;;;;;5.10;3.83;;;;;;;16.22;59.02;99181.56;4110544;28;20207;-51
2022/07/16 06:04:16;;;;;;;4.53;3.10;;;;;;;16.52;58.53;99170.69;4101904;28;20258;-52
2022/07/16 06:06:18;;;;;;;3.65;3.35;;;;;;;16.62;57.93;99176.22;4121110;28;20280;-52
2022/07/16 06:08:20;;;;;;;7.22;3.55;;;;;;;16.78;57.91;99177.94;4113557;28;20661;-52
2022/07/16 06:10:22;;;;;;;3.22;2.90;;;;;;;16.93;57.14;99172.41;4111772;28;20294;-52
2022/07/16 06:12:24;;;;;;;5.43;3.60;;;;;;;17.06;56.58;99166.34;4110745;28;20230;-52
2022/07/16 06:14:25;;;;;;;3.55;3.35;;;;;;;17.17;56.07;99167.97;4104616;28;20238;-52
2022/07/16 06:16:27;;;;;;;4.05;3.75;;;;;;;17.02;56.06;99170.75;4113397;28;20210;-52
2022/07/16 06:18:29;;;;;;;3.42;2.95;;;;;;;16.70;56.53;99172.09;4103437;28;20207;-51
2022/07/16 06:20:31;;;;;;;4.15;3.40;;;;;;;16.78;56.36;99175.16;4112679;28;20290;-51
2022/07/16 06:22:33;;;;;;;3.55;3.25;;;;;;;16.79;57.39;99170.44;4112677;28;20210;-51
2022/07/16 06:24:35;;;;;;;3.25;2.75;;;;;;;16.97;57.18;99178.22;4104314;28;20266;-51
2022/07/16 06:26:37;;;;;;;5.28;3.30;;;;;;;17.02;55.95;99187.34;4105278;28;20198;-51
2022/07/16 06:28:38;;;;;;;3.85;3.22;;;;;;;17.29;55.58;99182.38;4122807;28;20202;-51
2022/07/16 06:30:40;;;;;;;3.40;3.10;;;;;;;17.50;55.62;99189.59;4089166;28;20227;-52
2022/07/16 06:32:43;;;;;;;4.93;3.05;;;;;;;17.15;55.19;99192.31;4122295;28;20296;-51
2022/07/16 06:34:45;;;;;;;11.90;3.28;;;;;;;17.44;55.27;99196.25;4112402;28;20218;-51
2022/07/16 06:36:47;;;;;;;3.40;3.10;;;;;;;17.48;54.96;99189.88;4104328;28;20662;-52
2022/07/16 06:38:48;;;;;;;4.70;3.10;;;;;;;17.48;55.22;99189.03;4112510;28;20214;-51
2022/07/16 06:40:51;;;;;;;4.55;3.28;;;;;;;17.74;55.15;99180.44;4111852;28;20279;-51
2022/07/16 06:42:52;;;;;;;2.80;2.53;;;;;;;17.98;54.63;99186.19;4105850;28;20211;-51
2022/07/16 06:44:54;;;;;;;3.22;2.92;;;;;;;18.17;54.17;99188.06;4111508;28;20212;-52
2022/07/16 06:46:56;;;;;;;4.20;2.50;;;;;;;18.08;53.12;99188.91;4104696;28;20195;-51
2022/07/16 06:48:58;;;;;;;2.78;2.58;;;;;;;18.05;53.37;99186.72;4112815;28;20659;-51
2022/07/16 06:51:00;;;;;;;2.97;2.40;;;;;;;18.06;53.45;99189.19;4103620;28;20250;-52
2022/07/16 06:53:02;;;;;;;3.30;2.25;;;;;;;18.19;53.67;99187.78;4106087;28;20223;-51
2022/07/16 06:55:04;;;;;;;1.77;1.67;;;;;;;18.45;53.36;99192.13;4112033;28;20218;-51
2022/07/16 06:57:05;;;;;;;5.72;2.60;;;;;;;18.59;52.21;99182.09;4104244;28;20215;-52
2022/07/16 06:59:07;;;;;;;2.78;2.22;;;;;;;18.68;52.66;99186.75;4088581;29;20639;-51
2022/07/16 07:01:10;;;;;;;4.85;1.73;;;;;;;18.58;51.65;99185.97;4101599;28;20238;-56
2022/07/16 07:03:11;;;;;;;4.97;1.92;;;;;;;18.76;51.34;99188.91;4109201;28;20215;-55
2022/07/16 07:05:13;;;;;;;5.40;1.70;;;;;;;19.01;51.56;99185.13;4104288;28;20689;-55
2022/07/16 07:07:15;;;;;;;4.65;1.70;;;;;;;19.32;50.14;99181.06;4104183;28;20217;-55
2022/07/16 07:09:17;;;;;;;2.47;1.40;;;;;;;19.49;50.45;99184.22;4108636;28;20318;-54
2022/07/16 07:11:18;;;;;;;3.65;1.38;;;;;;;19.72;50.48;99181.50;4102789;28;20214;-55
2022/07/16 07:13:20;;;;;;;4.10;1.77;;;;;;;19.92;50.00;99181.28;4105627;28;20241;-54
2022/07/16 07:15:22;;;;;;;4.65;1.70;;;;;;;20.01;48.24;99185.09;4110975;28;20214;-54
2022/07/16 07:17:24;;;;;;;1.70;1.50;;;;;;;19.99;48.18;99186.50;4104316;28;20234;-55
2022/07/16 07:19:26;;;;;;;2.75;1.35;;;;;;;20.06;47.75;99178.69;4119215;28;20240;-54
2022/07/16 07:21:28;;;;;;;4.88;2.90;;;;;;;20.01;48.07;99187.03;4086263;28;20698;-54
2022/07/16 07:23:29;;;;;;;5.18;2.72;;;;;;;20.27;47.40;99191.22;4112344;28;20214;-54
2022/07/16 07:25:31;;;;;;;3.65;1.88;;;;;;;20.50;47.23;99191.19;4103069;28;20218;-54
2022/07/16 07:27:33;;;;;;;2.78;1.90;;;;;;;20.71;47.32;99194.56;4104317;28;20266;-54
2022/07/16 07:29:34;;;;;;;2.97;1.75;;;;;;;20.89;47.02;99190.97;4104974;28;20270;-54
2022/07/16 07:31:36;;;;;;;4.75;1.30;;;;;;;21.20;46.68;99192.16;4101912;28;20654;-54
2022/07/16 07:33:38;;;;;;;2.83;1.45;;;;;;;21.23;47.13;99186.00;4101636;28;20234;-55
2022/07/16 07:35:40;;;;;;;1.52;1.23;;;;;;;21.33;45.73;99191.41;4087187;28;20207;-55
2022/07/16 07:37:42;;;;;;;4.50;1.13;;;;;;;21.65;45.27;99185.84;4117325;28;20906;-55
2022/07/16 07:39:44;;;;;;;2.67;1.30;;;;;;;21.72;45.91;99183.53;4106149;28;20226;-55
2022/07/16 07:41:45;;;;;;;4.68;1.10;;;;;;;22.02;46.59;99182.94;4104273;28;20770;-55
2022/07/16 07:43:47;;;;;;;2.22;0.80;;;;;;;22.18;45.67;99181.53;4110118;28;20306;-55
2022/07/16 07:45:49;;;;;;;2.00;1.10;;;;;;;22.41;44.86;99180.47;4108807;28;20210;-55
2022/07/16 07:47:51;;;;;;;3.38;0.90;;;;;;;22.47;43.91;99187.66;4102529;28;20560;-55
2022/07/16 07:49:52;;;;;;;1.55;1.10;;;;;;;22.26;44.55;99178.00;4092342;28;20257;-55
2022/07/16 07:51:54;;;;;;;2.38;1.30;;;;;;;22.27;43.48;99176.88;4108443;28;20601;-55
2022/07/16 07:53:56;;;;;;;3.60;0.95;;;;;;;22.59;44.38;99176.78;4105367;28;20222;-55
2022/07/16 07:55:58;;;;;;;1.60;1.08;;;;;;;22.76;43.17;99182.56;4103567;28;20214;-54
2022/07/16 07:58:00;;;;;;;2.00;0.88;;;;;;;23.05;43.98;99177.41;4109644;28;20581;-54
2022/07/16 08:00:03;;;;;;;2.42;1.00;;;;;;;23.08;43.48;99179.56;4093555;28;21036;-55
2022/07/16 08:02:05;;;;;;;2.10;0.90;;;;;;;23.03;42.83;99171.34;4105758;28;20210;-54
2022/07/16 08:04:08;;;;;;;3.55;1.10;;;;;;;23.12;41.75;99177.81;4112437;28;20202;-54
2022/07/16 08:06:10;;;;;;;1.38;0.90;;;;;;;23.29;43.72;99180.75;4111310;28;20297;-55
2022/07/16 08:08:12;;;;;;;2.53;1.20;;;;;;;23.55;43.08;99173.41;4104552;28;21022;-54
2022/07/16 08:10:14;;;;;;;1.83;0.77;;;;;;;23.56;41.89;99166.69;4109924;28;20252;-54
2022/07/16 08:12:16;;;;;;;7.35;0.90;;;;;;;23.70;42.52;99171.03;4119429;28;20696;-54
2022/07/16 08:14:18;;;;;;;1.67;0.73;;;;;;;23.79;42.59;99169.16;4104993;28;20289;-55
2022/07/16 08:16:29;;;;;;;1.88;1.30;;;;;;;24.01;42.02;99172.72;4108068;28;20262;-54
2022/07/16 08:18:31;;;;;;;1.40;1.02;;;;;;;24.05;40.85;99173.75;4104122;28;20653;-55
2022/07/16 08:20:32;;;;;;;1.80;0.80;;;;;;;24.19;41.77;99179.25;4113051;28;20226;-54
2022/07/16 08:22:34;;;;;;;1.25;0.70;;;;;;;24.39;40.91;99176.69;4103891;28;20599;-55
2022/07/16 08:26:56;;;;;;;1.05;0.63;;;;;;;24.56;39.89;99179.59;4115512;28;20233;-55
2022/07/16 08:28:58;;;;;;;1.95;0.90;;;;;;;24.61;39.56;99175.81;4121848;28;20205;-55
2022/07/16 08:31:00;;;;;;;2.90;1.02;;;;;;;24.65;39.04;99177.63;4110557;28;20585;-54
2022/07/16 08:33:01;;;;;;;1.48;0.90;;;;;;;24.55;38.73;99177.91;4104368;28;20235;-54
2022/07/16 08:35:04;;;;;;;1.92;1.17;;;;;;;24.72;38.83;99168.78;4113532;28;20206;-55
2022/07/16 08:37:09;;;;;;;1.17;0.90;;;;;;;24.96;38.72;99161.56;4103136;28;20234;-54
2022/07/16 08:39:10;;;;;;;1.80;0.80;;;;;;;24.66;38.49;99179.28;4107128;28;20206;-53
2022/07/16 08:41:13;;;;;;;1.40;0.80;;;;;;;24.33;38.32;99169.59;4105055;28;21120;-55
2022/07/16 08:43:14;;;;;;;3.20;1.25;;;;;;;24.27;38.83;99165.28;4089958;28;20815;-54
2022/07/16 08:45:18;;;;;;;1.55;0.70;;;;;;;24.25;38.95;99167.59;4112840;28;20242;-54
2022/07/16 08:47:20;;;;;;;8.77;1.17;;;;;;;24.69;39.40;99167.44;4120897;28;20216;-54
2022/07/16 08:49:25;;;;;;;3.45;1.10;;;;;;;24.73;38.07;99165.63;4096897;28;20697;-53
2022/07/16 08:51:32;;;;;;;2.20;0.80;;;;;;;25.06;39.44;99166.81;4097185;28;20226;-53
2022/07/16 08:53:34;;;;;;;1.58;0.73;;;;;;;25.26;39.03;99171.81;4121441;28;20296;-54
2022/07/16 08:55:40;;;;;;;2.10;0.90;;;;;;;25.33;39.47;99162.91;4105217;28;20215;-53
2022/07/16 08:57:46;;;;;;;1.77;0.77;;;;;;;25.33;38.30;99169.31;4105743;28;20570;-53
2022/07/16 08:59:48;;;;;;;2.65;1.00;;;;;;;25.41;37.31;99168.53;4113717;28;20725;-54
2022/07/16 09:01:50;;;;;;;2.00;1.00;;;;;;;24.85;37.93;99160.22;4121739;28;20202;-54
2022/07/16 09:03:53;;;;;;;6.10;0.85;;;;;;;24.83;37.97;99161.69;4098482;28;20210;-54
2022/07/16 09:05:55;;;;;;;1.73;0.70;;;;;;;25.13;37.85;99167.16;4122220;28;20206;-54
2022/07/16 09:07:57;;;;;;;1.40;0.80;;;;;;;25.47;37.88;99161.56;4104708;28;20865;-54
2022/07/16 09:09:58;;;;;;;4.07;0.70;;;;;;;25.86;38.25;99168.94;4113711;28;20227;-54
2022/07/16 09:12:00;;;;;;;2.53;0.80;;;;;;;26.06;37.66;99163.44;4113357;28;20238;-55
2022/07/16 09:14:10;;;;;;;5.60;1.10;;;;;;;26.33;38.02;99168.63;4112432;28;20280;-54
2022/07/16 09:16:27;;;;;;;2.25;0.52;;;;;;;26.36;36.91;99165.16;4106877;28;20248;-53
2022/07/16 09:18:28;;;;;;;1.10;0.68;;;;;;;26.50;36.63;99162.94;4121385;28;20747;-54
2022/07/16 09:20:30;;;;;;;1.10;0.73;;;;;;;26.55;35.16;99165.59;4111549;28;20268;-54
2022/07/16 09:22:37;;;;;;;1.27;0.90;;;;;;;26.50;35.32;99162.94;4113184;28;20253;-54
2022/07/16 09:24:46;;;;;;;2.28;1.00;;;;;;;26.58;36.12;99164.91;4098332;28;20254;-54
2022/07/16 09:27:02;;;;;;;0.90;0.80;;;;;;;26.88;35.58;99171.34;4089959;28;20707;-55
2022/07/16 09:29:05;;;;;;;3.50;1.02;;;;;;;26.88;35.20;99168.53;4113169;28;20206;-54
2022/07/16 09:31:06;;;;;;;1.48;0.80;;;;;;;26.44;36.06;99169.06;4111932;28;20217;-54
2022/07/16 09:33:20;;;;;;;1.50;1.00;;;;;;;26.73;35.20;99171.94;4091897;28;20298;-54
2022/07/16 09:35:22;;;;;;;0.73;0.70;;;;;;;27.01;34.89;99178.69;4112665;28;20201;-54
2022/07/16 09:37:24;;;;;;;3.72;1.20;;;;;;;26.91;34.55;99177.09;4105811;28;20593;-54
2022/07/16 09:39:26;;;;;;;3.38;0.95;;;;;;;27.10;34.64;99177.47;4120630;28;20689;-54
2022/07/16 09:41:41;;;;;;;0.82;0.82;;;;;;;27.29;34.21;99180.66;4122148;28;20210;-54